Carson City, NV (89701)

7:06 PM PST on February 10, 2016 (GMT -0800)
carson city east of cemetary | | Change Station
CLOSE
Current Station
Personal Weather Station
Location: Carson City, NV
Elevation: 4695 ft
Nearby Weather Stations

Elev 4695 ft 39.18 °N, 119.75 °W | Updated 2 seconds ago

Clear
Clear
46.9 °F
Feels Like 47 °F
N
0.0
Wind Variable Wind from ESE
Gusts 0.0 mph

Today
High -- | Low -- °F
--% Chance of Precip.
Yesterday
High -- | Low -- °F
Precip. -- in
Pressure 30.34 in
Visibility 10.0 miles
Clouds Mostly Cloudy 25000 ft
Windchill 47 °F
Dew Point 38 °F
Humidity 70%
Rainfall 0.00 in
Snow Depth Not available.
6:57 AM 5:29 PM
Waxing Crescent, 9% visible
METAR KRNO 110255Z 25006KT 10SM BKN250 11/M01 A3035 RMK AO2 SLP274 T01061006 51008
Pressure 30.34 in
Visibility 10.0 miles
Clouds Mostly Cloudy 25000 ft
Windchill 47 °F
Dew Point 38 °F
Humidity 70%
Rainfall 0.00 in
Snow Depth Not available.
6:57 AM 5:29 PM
Waxing Crescent, 9% visible
METAR KRNO 110255Z 25006KT 10SM BKN250 11/M01 A3035 RMK AO2 SLP274 T01061006 51008

10-Day Weather Forecast

Almanac

Astronomy

Feb. 10, 2016 Rise Set
Actual Time
Civil Twilight
Nautical Twilight
Astronomical Twilight
Moon
Length of Visible Light
Length of Day
Tomorrow will be .
, % of the Moon is Illuminated

Today's Extremes

State Highs State Lows

Community

WunderPhotos

Upload Photos

1,891,994 photos uploaded!

WunderBlog® & News

Nearby

Air Quality

  Air Quality AQ Index Pollutant
Not available.

Snow Depth

Station Depth Elevation

Earthquake Activity

City Distance Mag. Time & Date
Minimum magnitude displayed is 2.5.

Coastal Water Temperatures

Place Temperature

Stations

Nearby Weather Stations

Station Location Temp. Windchill Dew Point Humidity Wind Precip. Elev Updated Type
                   

Watches & Warnings

There are currently no watches in effect.